• Join FlightAware (Why Join?)
  • Login
  • US Flag 
10:17PM EDT


 

Airport Tracker/Info


-or-


 

Live Flight TrackerFlight Track Log ✈ DAL95 ✈ 18-Apr-2013 ✈ KJFK - KDTW

Flight Track Log - Related Links

Times and Time Zones

All times are in EDT time to prevent confusion due to time zone crossing. See the DAL95 flight status page for this flight to view local times or setup timezone preferences in your user account.

Time Position Orientation Groundspeed Altitude Reporting Facility
EDT Latitude Longitude Course Direction KTS MPH feet Rate Location/Type
05:29PM 40.6000 -73.7833 237° Southwest 188 216 2,200  Level New York TRACON
05:30PM 40.5333 -73.7667 169° South 250 288 4,800 2,700 Climbing New York TRACON
05:31PM 40.3664 -74.2005 232° Southwest  Level FlightAware Approximate
05:31PM 40.4667 -73.8000 201° Southwest 251 289 7,700  Level New York TRACON
05:32PM 40.2995 -74.3121 232° Southwest  Level FlightAware Approximate
05:32PM 40.4333 -73.8833 242° Southwest 267 307 10,900  Level New York TRACON
05:33PM 40.2363 -74.4245 246° West  Level FlightAware Approximate
05:33PM 40.4000 -73.9833 246° West 303 349 13,400  Level New York TRACON
05:34PM 40.1886 -74.5394 237° Southwest  Level FlightAware Approximate
05:34PM 40.3667 -74.0833 246° West 342 394 14,900  Level New York TRACON
05:34PM 40.3339 -74.1608 241° Southwest 363 418 16,400 1,320 Climbing New York Center
05:35PM 40.2886 -74.2783 243° Southwest 363 418 17,000 240 Climbing New York Center
05:36PM 40.2478 -74.3850 243° Southwest 368 423 17,000  Level New York Center
05:37PM 40.1958 -74.5153 242° Southwest 368 423 17,000 660 Level New York Center
05:38PM 40.1919 -74.6375 268° West 362 417 18,400 1,800 Climbing New York Center
05:39PM 40.1789 -74.7808 263° West 394 453 20,600 2,160 Climbing New York Center
05:40PM 40.1692 -74.9378 265° West 400 460 22,700 1,860 Climbing New York Center
05:41PM 40.1578 -75.0836 264° West 405 466 24,400 1,680 Climbing New York Center
05:42PM 40.1436 -75.2350 263° West 410 472 26,200 1,560 Climbing New York Center
05:43PM 40.1317 -75.3861 264° West 415 478 27,500 960 Climbing New York Center
05:44PM 40.1169 -75.5481 263° West 434 499 28,200 1,020 Climbing New York Center
05:45PM 40.1039 -75.7100 264° West 445 512 29,600 1,260 Climbing New York Center
05:46PM 40.0908 -75.8692 264° West 450 518 30,800 1,200 Climbing New York Center
05:47PM 40.0756 -76.0283 263° West 450 518 32,100 1,140 Climbing New York Center
05:48PM 40.0622 -76.1872 264° West 450 518 33,200 960 Climbing New York Center
05:49PM 40.0419 -76.3511 261° West 450 518 34,100 840 Climbing New York Center
05:50PM 40.0281 -76.5100 264° West 450 518 35,000 420 Climbing New York Center
05:51PM 40.0119 -76.6686 262° West 450 518 35,000 180 Level New York Center
05:52PM 39.9975 -76.8300 263° West 450 518 35,400 480 Climbing New York Center
05:53PM 39.9808 -76.9886 262° West 450 518 36,000 240 Climbing New York Center
05:54PM 39.9639 -77.1494 262° West 450 518 36,000  Level New York Center
05:55PM 39.9531 -77.3083 265° West 450 518 36,000  Level New York Center
05:56PM 39.9567 -77.4686 272° West 445 512 36,000  Level New York Center
05:58PM 39.9628 -77.6522 273° West 460 529 36,000  Level Cleveland Center
05:59PM 39.9686 -77.8092 273° West 448 516 36,000  Level Cleveland Center
06:00PM 39.9747 -77.9714 273° West 448 516 36,000  Level Cleveland Center
06:01PM 39.9803 -78.1339 273° West 448 516 36,000  Level Cleveland Center
06:02PM 39.9797 -78.2992 270° West 448 516 36,000  Level Cleveland Center
06:03PM 39.9847 -78.4589 272° West 448 516 36,000  Level Cleveland Center
06:04PM 40.0272 -78.6147 290° West 448 516 36,000  Level Cleveland Center
06:05PM 40.0736 -78.7653 292° West 448 516 36,000  Level Cleveland Center
06:06PM 40.1217 -78.9161 293° West 458 527 36,000  Level Cleveland Center
06:07PM 40.1697 -79.0669 293° West 458 527 36,000  Level Cleveland Center
06:08PM 40.2153 -79.2183 292° West 453 521 36,000  Level Cleveland Center
06:09PM 40.2650 -79.3722 293° West 441 507 36,000  Level Cleveland Center
06:10PM 40.3081 -79.5158 292° West 430 495 36,000 -420 Level Cleveland Center
06:11PM 40.3533 -79.6650 292° West 430 495 35,200 -900 Descending Cleveland Center
06:12PM 40.4003 -79.8169 292° West 437 503 34,200 -1,020 Descending Cleveland Center
06:13PM 40.4492 -79.9719 293° West 448 516 33,200 -960 Descending Cleveland Center
06:14PM 40.4872 -80.1164 289° West 454 522 32,300 -960 Descending Cleveland Center
06:15PM 40.5336 -80.2717 292° West 461 531 31,300 -660 Descending Cleveland Center
06:16PM 40.5819 -80.4272 292° West 461 531 31,000 -180 Descending Cleveland Center
06:17PM 40.6239 -80.5803 290° West 456 525 31,000 -420 Level Cleveland Center
06:18PM 40.6736 -80.7308 294° West 456 525 30,200 -540 Descending Cleveland Center
06:19PM 40.7400 -80.8736 302° West 449 517 30,000 -120 Descending Cleveland Center
06:20PM 40.8083 -81.0139 303° West 455 524 30,000  Level Cleveland Center
06:21PM 40.8828 -81.1736 302° West 460 529 30,000 -1,140 Level Cleveland Center
06:22PM 40.9508 -81.3144 303° West 460 529 27,800 -2,220 Descending Cleveland Center
06:23PM 41.0206 -81.4556 303° West 462 532 25,600 -1,620 Descending Cleveland Center
06:24PM 41.0883 -81.5969 302° West 462 532 24,600 -840 Descending Cleveland Center
06:25PM 41.1478 -81.7108 305° West 438 504 24,000 -300 Descending Cleveland Center
06:26PM 41.2108 -81.8417 303° West 427 491 24,000  Level Cleveland Center
06:27PM 41.2678 -81.9700 301° West 419 482 24,000 -180 Level Cleveland Center
06:28PM 41.3308 -82.0958 304° West 413 475 23,700 -1,320 Descending Cleveland Center
06:29PM 41.4019 -82.2386 304° West 413 475 21,400 -2,220 Descending Cleveland Center
06:30PM 41.4708 -82.3539 309° West 406 467 19,300 -2,160 Descending Cleveland Center
06:31PM 41.5358 -82.4611 309° West 388 447 17,100 -2,160 Descending Cleveland Center
06:31PM 41.5564 -82.4950 309° West 371 427 16,500 -1,800 Descending Cleveland Center
06:32PM 41.5967 -82.5628 308° West 369 425 15,300 -1,620 Descending Cleveland Center
06:32PM 41.6475 -82.6506 308° West 300 345 13,900 -1,680 Descending Cleveland Center
06:33PM 41.6981 -82.7328 309° West 303 349 12,200 -1,020 Descending Cleveland Center
06:34PM 41.7547 -82.8128 314° West 303 349 12,000 -120 Descending Cleveland Center
06:36PM 41.8219 -82.8986 316° Northwest 299 344 12,000  Level Cleveland Center
06:36PM 41.8808 -82.9678 319° Northwest 307 353 12,000  Level Cleveland Center
06:37PM 41.9481 -83.0456 319° Northwest 305 351 12,000  Level Cleveland Center
06:39PM 42.0239 -83.1100 328° Northwest 304 350 12,000 -360 Level Cleveland Center
06:39PM 42.1094 -83.1078 North 343 395 11,300 -720 Descending Cleveland Center
06:40PM 42.1969 -83.1058 North 300 345 10,600 -1,080 Descending Cleveland Center
06:42PM 42.2908 -83.1039 North 296 341 9,100 -1,380 Descending Cleveland Center
06:43PM 42.3661 -83.0983 North 290 334 7,800 -1,500 Descending Cleveland Center
06:44PM 42.4358 -83.0450 29° Northeast 278 320 6,200 -900 Descending Cleveland Center
06:45PM 42.5047 -83.0503 357° North 196 226 6,000 -120 Descending Cleveland Center
06:47PM 42.4669 -83.1558 244° Southwest 165 190 6,000 -240 Level Cleveland Center
06:48PM 42.4244 -83.1850 207° Southwest 160 184 5,300 -840 Descending Cleveland Center
06:49PM 42.3883 -83.2117 209° Southwest 144 166 4,400 -840 Descending Cleveland Center
06:50PM 42.3525 -83.2356 206° Southwest 148 170 3,600 -840 Descending Cleveland Center
06:51PM 42.3142 -83.2647 209° Southwest 156 180 2,800 -840 Descending Cleveland Center